ADDS TAF Data INFO
IDs: Format: Raw Decoded Include METARs

Data at: 2221 UTC 23 May 2018

KTYS 232153Z COR 05005KT 10SM SCT050 BKN250 29/18 A3004 RMK AO2 SLP160 T02940183

KTYS 231720Z 2318/2418 02005KT P6SM SCT025 BKN040 BKN250
  FM240000 02004KT P6SM FEW045 SCT250
  FM240900 VRB03KT 5SM BR FEW250
  FM241200 05004KT P6SM SCT250
  FM241500 VRB03KT P6SM SCT040


KGSO 232154Z 08003KT 10SM SCT045TCU SCT250 29/20 A3000 RMK AO2 SLP148 CB DSNT E-S TCU S T02940200

KGSO 232117Z 2321/2418 34007KT P6SM VCTS BKN035CB
  TEMPO 2322/2324 VRB15G28KT 3SM -TSRA BR SCT012 BKN025CB
  FM240000 00000KT P6SM SCT100
  FM241500 06010G19KT P6SM SCT130


KCLT 232152Z COR 25003KT 10SM SCT040TCU SCT080 SCT120 BKN250 30/20 A3002 RMK AO2 LTG DSNT E AND SE SLP157 CB DSNT NE AND SE TCU SE AND W T03000200

KCLT 232157Z 2322/2424 23006KT P6SM VCSH SCT040 SCT140 BKN250
  FM240200 VRB03KT P6SM SCT050 BKN080
  FM241000 05006KT 6SM BR SCT030 BKN050
  FM241300 04008KT P6SM BKN040
  FM241800 06008KT P6SM BKN030
  PROB30 2418/2424 4SM -TSRA OVC015CB


KRDU 232151Z 28005KT 10SM FEW045 SCT075 SCT100 BKN250 28/21 A3001 RMK AO2 TSE00 SLP156 CB DSNT N-NE AND SE-S T02780211

KRDU 232118Z 2321/2418 26009KT P6SM VCTS SCT040CB BKN120
  TEMPO 2322/2324 VRB16G28KT 2SM SHRA BR SCT018 BKN035
  FM240000 00000KT P6SM SCT200
  FM240900 VRB03KT P6SM BKN015
  FM241500 05009KT P6SM FEW250


KPOB 232213Z AUTO 19004KT 10SM FEW050 SCT130 25/23 A3001 RMK AO2 PRESRR SLP164 $

TAF KPOB 231700Z 2317/2423 29012KT 9999 BKN040 QNH3000INS
  BECMG 2318/2319 25012KT 8000 -SHRA BKN030 QNH2998INS
  TEMPO 2319/2404 24015G25KT 4800 -TSRA OVC020CB
  BECMG 2403/2404 VRB06KT 9999 NSW BKN020 QNH3000INS
  BECMG 2405/2406 VRB06KT 6000 BR OVC007 QNH3006INS
  BECMG 2414/2415 08009KT 9999 NSW BKN020 OVC250 QNH3004INS
  BECMG 2417/2418 07009KT 9999 VCSH SCT050 QNH3012INS TX31/2321Z TN20/2410Z


KFBG 232156Z AUTO 08003KT 10SM VCTS FEW035 FEW095 SCT120 24/23 A2999 RMK AO2 RAE39 TSB2057E35 SLP157 P0026 T02400228 $

TAF KFBG 231700Z 2317/2423 23009KT 9999 SCT024 QNH3000INS
  BECMG 2318/2319 25012KT 8000 -SHRA BKN030 QNH2998INS
  TEMPO 2319/2404 24015G25KT 4800 -TSRA OVC020CB
  BECMG 2403/2404 VRB06KT 9999 NSW BKN020 QNH3000INS
  BECMG 2405/2406 VRB06KT 6000 BR OVC007 QNH3006INS
  BECMG 2414/2415 08009KT 9999 NSW BKN020 OVC250 QNH3004INS
  BECMG 2417/2418 07009KT 9999 VCSH SCT050 QNH3012INS TX31/2321Z TN20/2410Z


KFAY 232213Z VRB06KT 1/2SM +RA SCT016 OVC041 25/21 A3001 RMK AO2 LTG DSNT NE AND W RAB07 PRESRR P0026 T02500211 RVRNO

KFAY 232216Z 2322/2418 21008KT P6SM VCTS BKN045CB BKN150
  TEMPO 2322/2323 VRB20G30KT 1/2SM +TSRA SCT005 BKN015CB
  FM240000 VRB03KT P6SM VCSH SCT030 BKN060
  FM240200 00000KT P6SM BKN130
  FM241000 VRB03KT P6SM BKN007
  FM241300 05005KT P6SM BKN090
  FM241500 06008G15KT P6SM SCT200


KRWI 232153Z AUTO 00000KT 10SM CLR 29/22 A2997 RMK AO2 LTG DSNT SE AND NW SLP148 T02890217

KRWI 231726Z 2318/2418 22008KT P6SM SCT035
  FM231900 23008KT P6SM BKN040
  TEMPO 2320/2324 VRB20G35KT 2SM -TSRA BR SCT020CB BKN035
  FM240000 VRB03KT P6SM VCTS SCT025 BKN040CB
  FM240200 00000KT P6SM FEW070
  FM240400 00000KT P6SM FEW025
  FM240800 00000KT P6SM BKN015
  FM241200 03005KT P6SM FEW200


KISO 232156Z 00000KT 10SM BKN060 28/21 A3001

KISO 231726Z 2318/2418 24010KT P6SM VCSH BKN040
  TEMPO 2321/2401 VRB30KT 4SM TSRA SCT025 BKN035CB
  FM240100 24005KT P6SM VCSH BKN035
  FM240500 VRB04KT P6SM BKN100
  FM241400 05008KT P6SM SCT250 AMD LTD TO CLD VIS AND WIND


KGWW 232220Z AUTO 21010KT 10SM SCT085 27/23 A3000 RMK AO2 T02720230

No TAF found for KGWW

KGSB 232156Z AUTO 22006KT 10SM FEW150 29/22 A2997 RMK AO2 LTG DSNT E SLP151 T02850215 $

TAF KGSB 232000Z 2320/2502 22009KT 9999 VCSH BKN050 QNH2997INS
  BECMG 2323/2324 22009KT 8000 -SHRA VCTS BKN030CB QNH2996INS
  BECMG 2400/2401 21006KT 9999 VCTS BKN010CB QNH2997INS
  BECMG 2405/2406 VRB06KT 8000 BR BKN007 QNH3000INS
  BECMG 2412/2413 06009KT 9999 NSW SCT020 QNH3004INS
  BECMG 2415/2416 10009KT 9999 SCT040 QNH3006INS TX30/2320Z TN22/2409Z


KDPL 232215Z AUTO 21004KT 10SM SCT043 SCT050 SCT100 24/22 A3001 RMK AO2

No TAF found for KDPL

KCTZ 232215Z AUTO 00000KT 10SM SCT046 SCT060 26/22 A3000 RMK AO2 T02610220

No TAF found for KCTZ

KORF 232151Z 06006KT 10SM CLR 28/19 A2998 RMK AO2 SLP152 T02780194

KORF 231733Z 2318/2418 34007KT P6SM SCT045
  FM232100 02006KT P6SM VCTS SCT025 BKN040CB
  FM232300 03005KT P6SM SCT035
  FM240200 VRB03KT P6SM SCT250
  FM241200 01007KT P6SM SKC


KLFI 232156Z AUTO 14009KT 10SM CLR 27/20 A2999 RMK AO2 SLP162 T02650201

TAF KLFI 231700Z 2317/2423 36009KT 9999 BKN030 QNH2999INS
  TEMPO 2319/2321 32012G18KT 8000 -SHRA BKN030 OVC050
  BECMG 2400/2401 02006KT 9999 BKN030 QNH3004INS
  BECMG 2408/2409 36006KT 9999 SCT030 QNH3009INS
  BECMG 2412/2413 03009KT 9999 FEW030 QNH3010INS WND 08009KT AFT 2418 TX29/2319Z TN20/2410Z


KNTU 232156Z 11006KT 10SM SCT050 BKN080 BKN300 26/19 A2998 RMK AO2 SLP155 T2 SET T02560194

TAF KNTU 2315/2415 27012G20KT 9999 FEW025 SCT100 BKN250 QNH2994INS
  FM231700 34008G15KT 9999 VCTS FEW020CB SCT035 SCT100 BKN250 QNH2990INS
  TEMPO 2318/2323 VRB15G30KT 3200 -TSRA SCT015CB BKN025 BKN045
  FM232300 03005KT 9999 FEW015 SCT035 SCT090 BKN250 QNH2997INS
  FM240700 02006KT 9999 FEW030 QNH3005INS T30/2319Z T20/2409Z FN20008


KECG 232208Z 13008KT 3/4SM +TSRA BR BKN027 OVC047 21/21 A3002 RMK AO2 LTG DSNT SE AND W AND NW TSE06B08 P0027 T02060206

KECG 232025Z 2320/2418 23009KT P6SM VCTS SCT040CB BKN100
  TEMPO 2321/2323 36010KT 2SM +TSRA BR SCT020 BKN035CB
  FM240000 VRB04KT P6SM BKN025
  FM240300 00000KT P6SM SCT040
  FM240600 VRB04KT P6SM SCT250
  FM241500 04009KT P6SM SKC


KEWN 232154Z 15007KT 10SM BKN045 BKN080 OVC110 26/22 A3002 RMK AO2 WSHFT 2055 LTG DSNT SW AND NW TSB10E25 SLP166 T02560222

KEWN 231726Z 2318/2418 23011KT P6SM VCSH BKN040
  TEMPO 2320/2324 VRB30KT 4SM TSRA SCT025 BKN035CB
  FM240100 22008KT P6SM VCSH SCT025 BKN040
  FM240600 VRB05KT P6SM BKN040
  FM241200 04008KT P6SM BKN050


KNKT 232158Z 17006KT 7SM FEW009 FEW060 BKN110 26/24 A3003 RMK RAE34 TSE32 SLP166 P0030 T02560244

TAF AMD KNKT 2321/2421 19010G16KT 9999 VCTS -RA FEW020 SCT048 BKN055 QNH3003INS
  TEMPO 2321/2403 VRB15G25KT 0800 VCTS SHRA BR BKN020 OVC035CB
  FM240700 33006KT 9999 SCT040 BKN080 QNH3000INS
  TEMPO 2408/2414 36006KT BKN007 OVC015
  BECMG 2416/2418 07010KT BKN030 OVC060 QNH3010INS 21/2410Z T27/2415Z AMD 2109


KILM 232153Z 22009G18KT 10SM CLR 27/21 A3001 RMK AO2 SLP162 T02670206

KILM 231838Z 2319/2418 22010KT 6SM -SHRA SCT035 BKN090
  TEMPO 2319/2323 4SM TSRA BKN035CB
  FM240200 VRB03KT P6SM BKN035
  FM241000 35004KT P6SM BKN015
  FM241500 05005KT P6SM BKN035


KCAE 232156Z 21008KT 10SM SCT050 BKN110 28/22 A3003 RMK AO2 RAE04 SLP165 P0000 T02830217

KCAE 232059Z 2321/2418 20006KT P6SM -SHRA SCT020 BKN035
  FM232200 20005KT P6SM SCT020 BKN035
  FM240900 VRB03KT P6SM OVC020
  FM241100 VRB03KT P6SM OVC008
  FM241400 08004KT P6SM OVC015


KSSC 232156Z 19011KT 10SM FEW040 SCT120 BKN140 28/21 A3001 RMK AO2A SLP162 T02770210

TAF AMD KSSC 232104Z 2321/2421 21009KT 9999 VCSH SCT020 BKN045 QNH3002INS
  TEMPO 2321/2323 18010G15KT 4800 -TSRA BKN035CB
  BECMG 2401/2402 20006KT 9999 NSW SCT015 OVC065 QNH3004INS
  BECMG 2406/2407 19006KT 4800 BR OVC005 QNH3004INS
  BECMG 2413/2414 VRB06KT 9999 NSW OVC010 QNH3007INS
  BECMG 2416/2417 10006KT 9000 -RA BKN015 QNH3013INS
  TEMPO 2418/2421 10010G15KT 4800 -TSRA BKN010CB TX29/2321Z TN21/2410Z


KMMT 232156Z 22006KT 10SM FEW024 BKN100 BKN200 BKN250 27/21 A3004 RMK AO2A LTG DSNT NE SLP173 T02710209 $

TAF AMD KMMT 231535Z 2315/2421 22006KT 9000 -SHRA SCT015 BKN025 BKN180 QNH3011INS
  BECMG 2315/2316 21009KT 9999 VCSH SCT020 BKN045 QNH3004INS
  TEMPO 2316/2322 18010G15KT 1600 -TSRA BKN035CB
  BECMG 2401/2402 20006KT 9999 NSW SCT015 OVC065 QNH3004INS
  BECMG 2406/2407 19006KT 4800 BR OVC005 QNH3004INS
  BECMG 2413/2414 VRB06KT 9999 NSW OVC010 QNH3007INS
  BECMG 2416/2417 10006KT 9000 -RA BKN015 QNH3013INS
  TEMPO 2418/2421 10010G15KT 4800 -TSRA BKN010CB TX29/2321Z TN21/2410Z


KMYR 232208Z 19008KT 10SM FEW023 26/22 A3005 RMK AO2

KMYR 231822Z 2318/2418 21009KT P6SM -SHRA BKN035
  TEMPO 2318/2320 4SM TSRA BKN025CB
  FM232000 21009KT P6SM -SHRA BKN035
  TEMPO 2320/2322 3SM TSRA BKN025CB
  FM240000 23005KT P6SM BKN035
  FM241000 VRB03KT P6SM SCT010 BKN035
  FM241600 07005KT 5SM SHRA VCTS BKN030CB


KCHS 232156Z 20008KT 10SM FEW035 SCT090 BKN250 27/18 A3005 RMK AO2 SLP174 T02720178

KCHS 232013Z 2320/2418 18013KT P6SM VCTS FEW035CB
  FM232130 18010KT P6SM FEW040
  FM240300 VRB03KT P6SM SCT250
  FM240900 VRB03KT P6SM SCT025
  FM241400 16006KT P6SM SCT025


KSAV 232153Z 16012KT 10SM FEW030 SCT055CB BKN080 BKN140 29/21 A3004 RMK AO2 LTG DSNT NW-NE SLP172 OCNL LTGIC NW-N TS NW-N MOV NE TCU W T02890211

KSAV 232133Z 2322/2418 16011KT P6SM VCTS SCT040CB BKN080
  FM240100 VRB03KT P6SM SCT040 BKN070
  FM240900 00000KT P6SM SCT025
  FM241400 16006KT P6SM SCT025


KSVN 232156Z 16011G16KT 10SM FEW040 SCT120 BKN200 28/20 A3002 RMK AO2A LTG DSNT NW-N SLP168 T02840201 $

TAF KSVN 232000Z 2320/2502 16012KT 9000 -SHRA SCT030 BKN050 QNH3003INS
  TEMPO 2320/2322 8000 -TSRA BKN040CB
  BECMG 2322/2323 18009KT 9999 NSW SCT025 BKN030 QNH3002INS
  BECMG 2411/2412 19006KT 9999 FEW020 BKN040 QNH3004INS
  BECMG 2419/2420 16009KT 8000 -SHRA BKN025 OVC100 QNH3005INS TX31/2320Z TN22/2411Z


KDCA 232152Z 33012KT 10SM SCT055 SCT250 27/13 A3002 RMK AO2 SLP165 T02720133

KDCA 232037Z 2321/2424 32014G18KT P6SM BKN060
  FM232200 32005KT P6SM FEW050
  FM240400 VRB03KT P6SM SKC
  FM241200 36006KT P6SM FEW050


KADW 232156Z AUTO 34013G18KT 10SM CLR 26/14 A3001 RMK AO2 SLP167 T02550143

TAF KADW 231700Z 2317/2423 35012G18KT 9999 SCT035 QNH3000INS
  TEMPO 2317/2324 35015G25KT
  BECMG 2400/2401 35006KT 9999 FEW050 QNH3001INS
  BECMG 2414/2415 36009KT 9999 FEW250 QNH3009INS TX28/2320Z TN17/2410Z